Time;durP1;ratioP1;P1;durP2;ratioP2;P2;SDS_P1;SDS_P2;PMS_P1;PMS_P2;Temp;Humidity;BMP_temperature;BMP_pressure;BME280_temperature;BME280_humidity;BME280_pressure;Samples;Min_cycle;Max_cycle;Signal;HPM_P1;HPM_P2
2022/07/09 00:00:23;;;;;;;14.30;6.80;;;16.40;99.90;;;;;;6218753;23;20023;-83
2022/07/09 00:02:49;;;;;;;15.65;6.75;;;16.30;99.90;;;;;;6217486;23;20095;-87
2022/07/09 00:05:14;;;;;;;11.30;6.03;;;16.30;99.90;;;;;;6193548;23;20085;-83
2022/07/09 00:07:40;;;;;;;20.80;6.88;;;16.20;99.90;;;;;;6245685;23;20016;-84
2022/07/09 00:10:06;;;;;;;14.10;7.10;;;16.20;99.90;;;;;;6219011;23;20099;-84
2022/07/09 00:12:32;;;;;;;17.73;7.28;;;16.10;99.90;;;;;;6218893;23;20016;-83
2022/07/09 00:14:58;;;;;;;18.33;8.07;;;16.00;99.90;;;;;;6193497;23;20047;-83
2022/07/09 00:17:25;;;;;;;18.25;9.00;;;16.10;99.90;;;;;;6193341;23;20062;-83
2022/07/09 00:19:51;;;;;;;15.75;8.27;;;16.10;99.90;;;;;;6245206;23;20020;-85
2022/07/09 00:22:17;;;;;;;14.82;7.65;;;16.00;99.90;;;;;;6245901;23;20149;-84
2022/07/09 00:24:43;;;;;;;15.07;7.85;;;16.00;99.90;;;;;;6218825;23;20450;-84
2022/07/09 00:27:08;;;;;;;18.40;8.52;;;15.90;99.90;;;;;;6218632;23;20039;-85
2022/07/09 00:29:34;;;;;;;25.65;8.93;;;15.80;99.90;;;;;;6245429;23;20095;-84
2022/07/09 00:32:00;;;;;;;22.55;9.10;;;15.80;99.90;;;;;;6245526;23;20448;-83
2022/07/09 00:34:25;;;;;;;17.02;8.65;;;15.70;99.90;;;;;;6245607;23;20016;-84
2022/07/09 00:36:51;;;;;;;20.02;9.43;;;15.70;99.90;;;;;;6218864;23;20440;-84
2022/07/09 00:39:16;;;;;;;24.27;9.77;;;15.70;99.90;;;;;;6218761;23;20090;-83
2022/07/09 00:41:42;;;;;;;21.35;9.40;;;15.60;99.90;;;;;;6218702;23;20016;-83
2022/07/09 00:44:08;;;;;;;21.33;9.85;;;15.60;99.90;;;;;;6245292;23;20013;-83
2022/07/09 00:46:33;;;;;;;25.88;11.07;;;15.60;99.90;;;;;;6218254;23;20008;-84
2022/07/09 00:49:03;;;;;;;28.90;9.50;;;15.70;99.90;;;;;;6218311;23;20016;-83
2022/07/09 00:51:30;;;;;;;22.77;10.93;;;15.70;99.90;;;;;;6218823;23;20012;-83
2022/07/09 00:53:56;;;;;;;22.20;9.13;;;15.80;99.90;;;;;;6218764;23;20058;-83
2022/07/09 00:56:23;;;;;;;21.30;9.82;;;15.80;99.90;;;;;;6245517;23;20344;-83
2022/07/09 00:58:50;;;;;;;21.50;9.48;;;15.90;99.90;;;;;;6218013;23;20016;-84
2022/07/09 01:01:16;;;;;;;26.08;9.15;;;15.90;99.90;;;;;;6218610;23;20043;-84
2022/07/09 01:03:41;;;;;;;23.02;9.05;;;16.00;99.90;;;;;;6218816;23;20020;-83
2022/07/09 01:06:07;;;;;;;23.90;10.60;;;16.00;99.90;;;;;;6245645;23;20023;-83
2022/07/09 01:08:33;;;;;;;33.08;11.63;;;16.00;99.90;;;;;;6218597;23;20020;-83
2022/07/09 01:10:59;;;;;;;24.58;10.45;;;16.00;99.90;;;;;;6218565;23;20039;-83
2022/07/09 01:13:26;;;;;;;43.95;10.95;;;16.00;99.90;;;;;;6244915;23;20028;-83
2022/07/09 01:15:52;;;;;;;95.00;14.45;;;16.00;99.90;;;;;;6245209;23;20024;-82
2022/07/09 01:18:19;;;;;;;31.00;11.77;;;16.00;99.90;;;;;;6218781;23;20012;-83
2022/07/09 01:20:45;;;;;;;28.00;10.60;;;16.10;99.90;;;;;;6218597;23;20016;-83
2022/07/09 01:23:10;;;;;;;31.83;12.07;;;16.00;99.90;;;;;;6193314;23;20020;-86
2022/07/09 01:25:43;;;;;;;26.52;12.05;;;16.10;99.90;;;;;;6218190;23;20153;-84
2022/07/09 01:28:10;;;;;;;30.67;12.65;;;16.10;99.90;;;;;;6218384;23;20023;-83
2022/07/09 01:30:38;;;;;;;43.03;13.27;;;16.10;99.90;;;;;;6218722;23;20444;-83
2022/07/09 01:33:04;;;;;;;38.42;13.63;;;16.20;99.90;;;;;;6220495;23;20013;-83
2022/07/09 01:35:30;;;;;;;25.50;12.07;;;16.10;99.90;;;;;;6247278;23;20027;-83
2022/07/09 01:37:56;;;;;;;27.92;12.95;;;16.10;99.90;;;;;;6220405;23;20020;-84
2022/07/09 01:40:23;;;;;;;23.92;11.75;;;16.10;99.90;;;;;;6220443;23;20362;-84
2022/07/09 01:42:48;;;;;;;28.77;12.73;;;16.10;99.90;;;;;;6195363;23;20097;-84
2022/07/09 01:45:15;;;;;;;22.92;10.85;;;16.10;99.90;;;;;;6220275;23;20440;-83
2022/07/09 01:47:41;;;;;;;26.73;10.98;;;16.20;99.90;;;;;;6220288;23;20099;-83
2022/07/09 01:50:07;;;;;;;27.85;11.23;;;16.10;99.90;;;;;;6220287;23;20368;-84
2022/07/09 01:52:33;;;;;;;26.40;11.57;;;16.10;99.90;;;;;;6220304;23;20379;-83
2022/07/09 01:54:59;;;;;;;28.73;10.95;;;16.20;99.90;;;;;;6220313;23;20023;-84
2022/07/09 01:57:25;;;;;;;27.45;11.32;;;16.10;99.90;;;;;;6219084;23;20436;-83
2022/07/09 01:59:51;;;;;;;29.15;10.90;;;16.10;99.90;;;;;;6220004;23;20016;-84
2022/07/09 02:02:16;;;;;;;29.65;12.07;;;16.10;99.90;;;;;;6220432;23;20027;-81
2022/07/09 02:04:42;;;;;;;29.50;12.45;;;16.10;99.90;;;;;;6219766;23;20062;-83
2022/07/09 02:07:07;;;;;;;25.80;12.50;;;16.10;99.90;;;;;;6220035;23;20012;-83
2022/07/09 02:09:33;;;;;;;23.05;11.68;;;16.00;99.90;;;;;;6195103;23;20098;-83
2022/07/09 02:11:59;;;;;;;26.42;11.80;;;16.00;99.90;;;;;;6220272;23;20035;-83
2022/07/09 02:14:24;;;;;;;20.08;10.88;;;16.10;99.90;;;;;;6219501;23;20364;-84
2022/07/09 02:16:50;;;;;;;24.60;11.35;;;16.00;99.90;;;;;;6194690;23;20024;-84
2022/07/09 02:19:15;;;;;;;18.20;9.40;;;16.00;99.90;;;;;;6220173;23;20106;-84
2022/07/09 02:21:41;;;;;;;20.95;11.32;;;15.90;99.90;;;;;;6220069;23;20069;-83
2022/07/09 02:24:07;;;;;;;17.33;9.88;;;16.00;99.90;;;;;;6246843;23;20074;-85
2022/07/09 02:26:32;;;;;;;16.35;10.20;;;15.90;99.90;;;;;;6219976;23;20383;-84
2022/07/09 02:28:59;;;;;;;17.45;9.68;;;15.90;99.90;;;;;;6219891;23;20387;-84
2022/07/09 02:31:26;;;;;;;18.08;9.77;;;15.80;99.90;;;;;;6246903;23;20499;-84
2022/07/09 02:33:53;;;;;;;16.63;9.20;;;15.80;99.90;;;;;;6220096;23;20066;-84
2022/07/09 02:36:19;;;;;;;21.55;9.95;;;15.80;99.90;;;;;;6194873;23;20012;-84
2022/07/09 02:38:45;;;;;;;18.52;9.25;;;15.80;99.90;;;;;;6220252;23;20020;-83
2022/07/09 02:41:10;;;;;;;20.38;9.38;;;15.90;99.90;;;;;;6219719;23;20570;-84
2022/07/09 02:43:36;;;;;;;18.63;8.98;;;15.80;99.90;;;;;;6219524;23;20105;-85
2022/07/09 02:46:03;;;;;;;17.15;9.13;;;15.80;99.90;;;;;;6219813;23;20020;-84
2022/07/09 02:48:29;;;;;;;17.17;8.82;;;15.80;99.90;;;;;;6246369;23;20012;-84
2022/07/09 02:50:55;;;;;;;17.20;8.05;;;15.70;99.90;;;;;;6219424;23;20024;-84
2022/07/09 02:53:20;;;;;;;19.25;8.65;;;15.80;99.90;;;;;;6219914;23;20024;-83
2022/07/09 02:55:46;;;;;;;14.20;7.93;;;15.80;99.90;;;;;;6219603;23;20023;-85
2022/07/09 02:58:12;;;;;;;17.10;8.55;;;15.70;99.90;;;;;;6219953;23;20023;-84
2022/07/09 03:00:41;;;;;;;15.13;8.85;;;15.70;99.90;;;;;;6218534;23;20031;-84
2022/07/09 03:03:07;;;;;;;19.15;9.02;;;15.70;99.90;;;;;;6218549;23;20136;-83
2022/07/09 03:05:34;;;;;;;16.70;7.75;;;15.70;99.90;;;;;;6219722;23;20095;-84
2022/07/09 03:08:01;;;;;;;15.73;8.13;;;15.70;99.90;;;;;;6246682;23;20022;-83
2022/07/09 03:10:27;;;;;;;16.13;8.43;;;15.70;99.90;;;;;;6219638;23;20051;-83
2022/07/09 03:12:52;;;;;;;17.73;9.45;;;15.80;99.90;;;;;;6246449;23;20023;-83
2022/07/09 03:15:18;;;;;;;16.83;8.30;;;15.80;99.90;;;;;;6219048;23;20016;-83
2022/07/09 03:17:45;;;;;;;15.90;9.35;;;15.70;99.90;;;;;;6219528;23;20028;-83
2022/07/09 03:20:11;;;;;;;17.85;8.30;;;15.70;99.90;;;;;;6246190;23;20024;-83
2022/07/09 03:22:36;;;;;;;18.13;8.82;;;15.80;99.90;;;;;;6219310;23;20016;-84
2022/07/09 03:25:03;;;;;;;16.17;8.82;;;15.80;99.90;;;;;;6219130;23;20070;-83
2022/07/09 03:27:29;;;;;;;15.98;8.15;;;15.80;99.90;;;;;;6245582;23;20020;-83
2022/07/09 03:29:55;;;;;;;15.63;8.27;;;15.70;99.90;;;;;;6218318;23;20012;-83
2022/07/09 03:32:21;;;;;;;12.32;7.38;;;15.80;99.90;;;;;;6193513;23;20073;-83
2022/07/09 03:34:47;;;;;;;14.88;8.90;;;15.70;99.90;;;;;;6219157;23;20027;-83
2022/07/09 03:37:13;;;;;;;20.90;10.00;;;15.70;99.90;;;;;;6218775;23;20074;-83
2022/07/09 03:39:39;;;;;;;15.85;8.68;;;15.80;99.90;;;;;;6219087;23;20016;-83
2022/07/09 03:42:06;;;;;;;14.73;8.68;;;15.80;99.90;;;;;;6246012;23;20020;-83
2022/07/09 03:44:33;;;;;;;17.05;9.02;;;15.80;99.90;;;;;;6194035;23;20027;-83
2022/07/09 03:46:59;;;;;;;17.13;8.63;;;15.90;99.90;;;;;;6219313;23;20025;-83
2022/07/09 03:49:25;;;;;;;16.80;8.82;;;15.80;99.90;;;;;;6219095;23;20020;-83
2022/07/09 03:51:51;;;;;;;16.15;8.02;;;15.80;99.90;;;;;;6219099;23;20016;-83
2022/07/09 03:54:16;;;;;;;21.08;9.85;;;15.80;99.90;;;;;;6218712;23;20023;-83
2022/07/09 03:56:42;;;;;;;16.85;7.70;;;15.70;99.90;;;;;;6245951;23;20432;-83
2022/07/09 03:59:08;;;;;;;18.25;8.93;;;15.60;99.90;;;;;;6245553;23;20048;-84
2022/07/09 04:01:33;;;;;;;18.58;9.50;;;15.60;99.90;;;;;;6219034;23;20455;-82
2022/07/09 04:03:59;;;;;;;17.70;8.93;;;15.60;99.90;;;;;;6245982;23;20028;-82
2022/07/09 04:06:25;;;;;;;15.25;8.88;;;15.60;99.90;;;;;;6245650;23;20047;-83
2022/07/09 04:08:50;;;;;;;16.05;8.18;;;15.60;99.90;;;;;;6219240;23;20020;-83
2022/07/09 04:11:16;;;;;;;17.20;8.90;;;15.60;99.90;;;;;;6218439;23;20482;-83
2022/07/09 04:13:42;;;;;;;14.05;7.45;;;15.70;99.90;;;;;;6218894;23;20094;-84
2022/07/09 04:16:07;;;;;;;16.25;9.00;;;15.60;99.90;;;;;;6218859;23;20024;-83
2022/07/09 04:18:34;;;;;;;14.90;8.13;;;15.70;99.90;;;;;;6245763;23;20018;-83
2022/07/09 04:21:00;;;;;;;14.90;7.68;;;15.60;99.90;;;;;;6218986;23;20054;-83
2022/07/09 04:23:26;;;;;;;13.18;6.65;;;15.60;99.90;;;;;;6218976;23;20039;-83
2022/07/09 04:25:52;;;;;;;16.75;8.20;;;15.70;99.90;;;;;;6218872;23;20452;-83
2022/07/09 04:28:18;;;;;;;20.10;8.60;;;15.70;99.90;;;;;;6217795;23;20012;-83
2022/07/09 04:30:45;;;;;;;16.35;9.00;;;15.70;99.90;;;;;;6218300;23;20020;-83
2022/07/09 04:33:10;;;;;;;15.75;8.43;;;15.70;99.90;;;;;;6245662;23;20099;-83
2022/07/09 04:35:36;;;;;;;15.05;7.45;;;15.70;99.90;;;;;;6245224;23;20410;-83
2022/07/09 04:38:03;;;;;;;17.45;8.20;;;15.70;99.90;;;;;;6193833;23;20095;-83
2022/07/09 04:40:28;;;;;;;12.02;7.68;;;15.80;99.90;;;;;;6218902;23;20054;-83
2022/07/09 04:42:54;;;;;;;17.70;8.85;;;15.80;99.90;;;;;;6218306;23;20342;-83
2022/07/09 04:45:20;;;;;;;13.63;8.45;;;15.80;99.90;;;;;;6245578;23;20062;-84
2022/07/09 04:47:45;;;;;;;11.60;7.30;;;15.80;99.90;;;;;;6245116;23;20012;-87
2022/07/09 04:50:11;;;;;;;20.55;8.07;;;15.80;99.90;;;;;;6245671;23;20023;-83
2022/07/09 04:52:38;;;;;;;15.45;8.48;;;15.80;99.90;;;;;;6218668;23;20022;-83
2022/07/09 04:55:04;;;;;;;13.18;7.80;;;15.90;99.90;;;;;;6218822;23;20016;-84
2022/07/09 04:57:30;;;;;;;12.00;7.57;;;16.00;99.90;;;;;;6245367;23;20024;-83
2022/07/09 05:00:00;;;;;;;12.00;7.03;;;16.00;99.90;;;;;;6218515;23;20016;-83
2022/07/09 05:02:26;;;;;;;12.80;7.32;;;16.20;99.90;;;;;;6193386;23;20023;-83
2022/07/09 05:04:51;;;;;;;11.48;7.43;;;16.20;99.90;;;;;;6218497;23;20066;-83
2022/07/09 05:07:17;;;;;;;17.10;7.93;;;16.30;99.90;;;;;;6220402;23;20012;-84
2022/07/09 05:09:43;;;;;;;11.40;6.60;;;16.40;99.90;;;;;;6194911;23;20390;-83
2022/07/09 05:12:10;;;;;;;12.70;6.95;;;16.50;99.90;;;;;;6220609;23;20022;-83
2022/07/09 05:14:37;;;;;;;16.60;7.80;;;16.60;99.90;;;;;;6247318;23;20078;-83
2022/07/09 05:17:03;;;;;;;18.02;8.30;;;16.60;99.90;;;;;;6220422;23;20020;-84
2022/07/09 05:19:29;;;;;;;14.68;7.07;;;16.60;99.90;;;;;;6220797;23;20016;-82
2022/07/09 05:21:55;;;;;;;11.85;7.65;;;16.60;99.90;;;;;;6220731;23;20105;-83
2022/07/09 05:24:20;;;;;;;14.27;6.50;;;16.70;99.90;;;;;;6247592;23;20020;-83
2022/07/09 05:26:46;;;;;;;13.95;7.22;;;16.70;99.90;;;;;;6220252;23;20023;-83
2022/07/09 05:29:12;;;;;;;11.32;7.32;;;16.80;99.90;;;;;;6219837;23;20028;-83
2022/07/09 05:31:38;;;;;;;12.30;6.78;;;16.80;99.90;;;;;;6194751;23;20073;-84
2022/07/09 05:34:04;;;;;;;14.95;6.85;;;16.80;99.90;;;;;;6220109;23;20095;-84
2022/07/09 05:36:30;;;;;;;10.70;5.63;;;16.80;99.90;;;;;;6247243;23;20020;-84
2022/07/09 05:38:57;;;;;;;12.75;6.55;;;16.90;99.90;;;;;;6220021;23;20092;-83
2022/07/09 05:41:24;;;;;;;9.10;5.57;;;17.00;99.90;;;;;;6195563;23;20070;-83
2022/07/09 05:43:51;;;;;;;9.85;6.40;;;17.00;99.90;;;;;;6247092;23;20042;-83
2022/07/09 05:46:16;;;;;;;10.00;5.10;;;17.10;99.90;;;;;;6195279;23;20031;-84
2022/07/09 05:48:42;;;;;;;9.52;5.30;;;17.20;99.90;;;;;;6247012;23;20020;-83
2022/07/09 05:51:08;;;;;;;11.27;6.10;;;17.30;99.90;;;;;;6247159;23;20447;-83
2022/07/09 05:53:33;;;;;;;10.45;5.85;;;17.40;99.90;;;;;;6220466;23;20071;-83
2022/07/09 05:55:59;;;;;;;9.98;5.60;;;17.60;99.90;;;;;;6219918;23;20031;-83
2022/07/09 05:58:24;;;;;;;7.28;4.80;;;17.70;99.90;;;;;;6219841;23;20024;-83
2022/07/09 06:00:50;;;;;;;10.93;5.47;;;17.80;99.90;;;;;;6219686;23;20336;-83
2022/07/09 06:03:16;;;;;;;9.68;5.07;;;17.90;99.90;;;;;;6220008;23;20448;-83
2022/07/09 06:05:41;;;;;;;9.52;5.50;;;18.10;99.90;;;;;;6220243;23;20020;-83
2022/07/09 06:08:09;;;;;;;7.28;5.05;;;18.30;99.90;;;;;;6219631;23;20336;-83
2022/07/09 06:10:34;;;;;;;8.05;4.93;;;18.30;99.90;;;;;;6220103;23;20370;-84
2022/07/09 06:13:00;;;;;;;10.23;5.47;;;18.40;99.90;;;;;;6220071;23;20047;-83
2022/07/09 06:15:26;;;;;;;7.35;4.20;;;18.50;99.90;;;;;;6220186;23;20070;-83
2022/07/09 06:17:51;;;;;;;7.00;3.80;;;18.60;99.90;;;;;;6219271;23;20035;-83
2022/07/09 06:20:17;;;;;;;8.35;4.38;;;18.60;99.90;;;;;;6220221;23;20027;-84
2022/07/09 06:22:43;;;;;;;6.03;4.28;;;18.70;99.90;;;;;;6220085;23;20146;-84
2022/07/09 06:25:09;;;;;;;7.68;4.03;;;18.70;99.90;;;;;;6193693;23;20020;-84
2022/07/09 06:27:35;;;;;;;8.55;3.67;;;18.70;99.90;;;;;;6220216;23;20046;-84
2022/07/09 06:30:03;;;;;;;6.75;3.40;;;18.70;99.90;;;;;;6219698;23;20047;-84
2022/07/09 06:32:28;;;;;;;7.10;3.28;;;18.70;99.90;;;;;;6195141;23;20016;-84
2022/07/09 06:34:54;;;;;;;8.57;3.70;;;18.80;99.90;;;;;;6219917;23;20016;-84
2022/07/09 06:37:20;;;;;;;6.30;3.15;;;18.80;99.90;;;;;;6219949;23;20013;-84
2022/07/09 06:39:46;;;;;;;7.03;3.78;;;18.90;99.90;;;;;;6194368;23;20394;-89
2022/07/09 06:42:17;;;;;;;5.68;3.25;;;18.80;99.90;;;;;;6220130;23;20008;-83
2022/07/09 06:44:43;;;;;;;6.57;3.75;;;18.80;99.90;;;;;;6246630;23;20056;-84
2022/07/09 06:47:10;;;;;;;6.50;3.38;;;18.90;99.90;;;;;;6218946;23;20448;-85
2022/07/09 06:49:36;;;;;;;7.20;3.20;;;18.80;99.90;;;;;;6218714;23;20123;-84
2022/07/09 06:52:02;;;;;;;5.30;3.17;;;18.90;99.90;;;;;;6220539;23;20016;-83
2022/07/09 06:54:28;;;;;;;8.07;3.22;;;18.90;99.90;;;;;;6220025;23;20016;-83
2022/07/09 06:56:53;;;;;;;4.90;3.08;;;18.90;99.90;;;;;;6246833;23;20067;-84
2022/07/09 06:59:22;;;;;;;6.57;3.20;;;18.90;99.90;;;;;;6220020;23;20108;-84
2022/07/09 07:01:48;;;;;;;5.90;2.80;;;18.90;99.90;;;;;;6246754;23;20020;-84
2022/07/09 07:04:14;;;;;;;7.38;2.95;;;19.00;99.90;;;;;;6246526;23;20090;-84
2022/07/09 07:06:45;;;;;;;7.70;2.78;;;19.10;99.90;;;;;;6219687;23;20012;-84
2022/07/09 07:09:10;;;;;;;5.78;2.72;;;19.20;99.90;;;;;;6246691;23;20375;-85
2022/07/09 07:11:36;;;;;;;6.43;2.80;;;19.30;99.90;;;;;;6194487;23;20016;-84
2022/07/09 07:14:36;;;;;;;8.32;2.65;;;19.50;99.90;;;;;;6246617;23;20028;-82
2022/07/09 07:17:02;;;;;;;6.15;2.38;;;19.60;99.90;;;;;;6194551;23;20321;-85
2022/07/09 07:19:28;;;;;;;6.50;2.55;;;19.60;99.90;;;;;;6218327;23;20023;-85
2022/07/09 07:21:54;;;;;;;5.72;2.67;;;19.70;99.90;;;;;;6194558;23;20012;-86
2022/07/09 07:24:20;;;;;;;5.13;2.42;;;19.90;99.90;;;;;;6219392;23;20463;-85
2022/07/09 07:26:45;;;;;;;5.97;2.50;;;20.10;99.90;;;;;;6219261;23;20023;-85
2022/07/09 07:29:11;;;;;;;10.73;2.20;;;20.30;99.90;;;;;;6194258;23;20023;-84
2022/07/09 07:31:37;;;;;;;5.68;2.63;;;20.40;99.90;;;;;;6246255;23;20070;-84
2022/07/09 07:34:05;;;;;;;5.07;2.22;;;20.40;99.90;;;;;;6246366;23;20458;-84
2022/07/09 07:36:31;;;;;;;4.00;2.40;;;20.40;99.90;;;;;;6193641;23;20020;-84
2022/07/09 07:38:57;;;;;;;5.93;2.13;;;20.30;99.90;;;;;;6247443;23;20062;-84
2022/07/09 07:41:23;;;;;;;4.53;2.38;;;20.30;99.90;;;;;;6219568;23;20098;-82
2022/07/09 07:43:48;;;;;;;4.80;2.60;;;20.30;99.90;;;;;;6218818;23;20020;-83
2022/07/09 07:46:14;;;;;;;6.57;2.42;;;20.10;99.90;;;;;;6218927;23;20012;-83
2022/07/09 07:48:42;;;;;;;3.97;2.17;;;20.20;99.90;;;;;;6245906;23;20052;-83
2022/07/09 07:51:10;;;;;;;4.97;2.67;;;20.20;99.90;;;;;;6245976;23;20371;-83
2022/07/09 07:53:36;;;;;;;4.82;2.20;;;20.20;99.90;;;;;;6194224;23;20353;-82
2022/07/09 07:56:06;;;;;;;6.10;2.70;;;20.10;99.90;;;;;;6219341;23;20073;-82
2022/07/09 07:58:33;;;;;;;5.97;2.28;;;20.10;99.90;;;;;;6218879;23;20016;-84
2022/07/09 08:00:59;;;;;;;4.38;2.42;;;20.10;99.90;;;;;;6219123;23;20020;-84
2022/07/09 08:03:25;;;;;;;3.53;2.47;;;20.00;99.90;;;;;;6197791;23;20020;-84
2022/07/09 08:05:51;;;;;;;4.63;2.50;;;19.90;99.90;;;;;;6195412;23;20106;-83
2022/07/09 08:08:18;;;;;;;4.82;2.40;;;19.90;99.90;;;;;;6219419;23;20012;-83
2022/07/09 08:10:45;;;;;;;3.85;2.60;;;19.80;99.90;;;;;;6219492;23;20020;-83
2022/07/09 08:13:11;;;;;;;6.45;2.53;;;19.90;99.90;;;;;;6246096;23;20082;-83
2022/07/09 08:15:38;;;;;;;4.60;2.88;;;19.90;99.90;;;;;;6218887;23;20083;-82
2022/07/09 08:18:03;;;;;;;5.82;3.00;;;19.90;99.90;;;;;;6196716;23;20043;-83
2022/07/09 08:20:29;;;;;;;5.13;2.58;;;20.00;99.90;;;;;;6229423;23;20420;-84
2022/07/09 08:22:55;;;;;;;4.88;2.20;;;20.20;99.90;;;;;;6226373;23;20466;-83
2022/07/09 08:25:20;;;;;;;5.28;2.35;;;20.40;99.90;;;;;;6253091;23;20016;-82
2022/07/09 08:27:48;;;;;;;6.65;2.50;;;20.60;99.90;;;;;;6220886;23;20088;-83
2022/07/09 08:30:14;;;;;;;2.55;1.83;;;20.80;99.90;;;;;;6193358;23;20020;-83
2022/07/09 08:32:39;;;;;;;3.50;1.80;;;20.80;99.90;;;;;;6220290;23;20023;-83
2022/07/09 08:35:06;;;;;;;4.00;1.63;;;20.70;99.90;;;;;;6194446;23;20016;-83
2022/07/09 08:37:32;;;;;;;3.13;1.83;;;20.60;99.90;;;;;;6219463;23;20024;-82
2022/07/09 08:39:57;;;;;;;5.10;1.50;;;20.60;99.90;;;;;;6194376;23;20091;-82
2022/07/09 08:42:23;;;;;;;4.28;1.50;;;20.90;99.90;;;;;;6247784;23;20020;-82
2022/07/09 08:44:49;;;;;;;2.90;1.05;;;21.10;99.90;;;;;;6220675;23;20078;-83
2022/07/09 08:47:15;;;;;;;3.40;1.08;;;21.80;99.90;;;;;;6221433;23;20021;-82
2022/07/09 08:49:42;;;;;;;2.78;1.05;;;22.40;99.90;;;;;;6221720;23;20027;-83
2022/07/09 08:52:08;;;;;;;1.80;1.00;;;23.10;99.90;;;;;;6197336;23;20379;-82
2022/07/09 08:54:37;;;;;;;2.00;1.25;;;23.30;99.90;;;;;;6220754;23;20061;-82
2022/07/09 08:57:05;;;;;;;2.35;1.00;;;23.40;99.90;;;;;;6225390;23;20020;-86
2022/07/09 08:59:31;;;;;;;1.80;1.02;;;23.50;99.90;;;;;;6220067;23;20096;-83
2022/07/09 09:01:56;;;;;;;3.33;1.20;;;23.60;99.90;;;;;;6220947;23;20024;-82
2022/07/09 09:04:23;;;;;;;2.42;1.05;;;23.90;99.90;;;;;;6246822;23;20065;-83
2022/07/09 09:06:50;;;;;;;5.18;1.20;;;24.60;99.90;;;;;;6221499;23;20020;-82
2022/07/09 09:09:19;;;;;;;1.77;0.80;;;25.00;99.90;;;;;;6246112;23;20055;-83
2022/07/09 09:11:49;;;;;;;2.20;0.80;;;25.10;99.90;;;;;;6245788;23;20317;-83
2022/07/09 09:14:20;;;;;;;1.25;0.95;;;24.80;99.90;;;;;;6245765;23;20024;-82
2022/07/09 09:16:46;;;;;;;2.30;0.80;;;24.50;99.90;;;;;;6245610;23;20016;-82
2022/07/09 09:19:13;;;;;;;2.58;0.88;;;24.50;99.90;;;;;;6218987;23;20020;-83
2022/07/09 09:21:38;;;;;;;3.78;1.30;;;24.80;99.90;;;;;;6221995;23;20019;-83
2022/07/09 09:24:05;;;;;;;3.40;0.93;;;25.50;99.90;;;;;;6221096;23;20400;-83
2022/07/09 09:26:30;;;;;;;2.45;0.98;;;25.60;99.90;;;;;;6220542;23;20593;-84
2022/07/09 09:29:01;;;;;;;4.80;1.08;;;25.30;99.90;;;;;;6219518;23;20020;-83
2022/07/09 09:31:32;;;;;;;4.80;1.25;;;25.60;99.90;;;;;;6218498;23;20074;-82
2022/07/09 09:34:12;;;;;;;1.67;0.95;;;25.60;97.00;;;;;;6192974;23;20024;-82
2022/07/09 09:36:39;;;;;;;1.83;1.00;;;25.30;99.90;;;;;;6218847;23;20016;-82
2022/07/09 09:39:20;;;;;;;2.25;1.10;;;25.00;99.90;;;;;;6218831;23;20422;-83
2022/07/09 09:41:46;;;;;;;;;;;24.90;99.90;;;;;;6219026;23;20020;-83
2022/07/09 09:44:16;;;;;;;4.80;1.00;;;24.50;99.90;;;;;;6220137;23;19955;-82
2022/07/09 09:46:44;;;;;;;2.60;1.05;;;24.20;99.90;;;;;;6245402;23;20322;-83
2022/07/09 09:49:12;;;;;;;3.85;1.02;;;24.10;99.90;;;;;;6245361;23;20020;-83
2022/07/09 09:51:49;;;;;;;3.00;1.00;;;23.90;99.90;;;;;;6219222;23;20391;-83
2022/07/09 09:54:16;;;;;;;4.28;0.90;;;23.60;99.90;;;;;;6220585;23;20016;-83
2022/07/09 09:56:41;;;;;;;2.72;1.00;;;23.30;99.90;;;;;;6247411;23;20344;-82
2022/07/09 09:59:10;;;;;;;2.38;0.90;;;23.30;99.90;;;;;;6220263;23;20017;-83
2022/07/09 10:01:36;;;;;;;1.80;0.80;;;23.10;99.90;;;;;;6247588;23;20020;-82
2022/07/09 10:04:02;;;;;;;3.28;1.13;;;22.90;99.90;;;;;;6220493;23;20455;-83
2022/07/09 10:06:28;;;;;;;2.83;1.10;;;22.80;99.90;;;;;;6220534;23;20052;-83
2022/07/09 10:08:54;;;;;;;4.20;1.00;;;23.50;99.90;;;;;;6220359;23;20012;-85
2022/07/09 10:11:21;;;;;;;1.85;0.80;;;24.80;99.90;;;;;;6195604;23;20024;-84
2022/07/09 10:13:51;;;;;;;3.58;0.70;;;26.00;97.80;;;;;;6195191;23;20095;-83
2022/07/09 10:16:17;;;;;;;2.75;0.80;;;26.40;90.00;;;;;;6220779;23;20020;-83
2022/07/09 10:18:52;;;;;;;1.88;0.60;;;26.40;90.40;;;;;;6246897;23;20023;-83
2022/07/09 10:21:29;;;;;;;2.53;0.75;;;26.50;85.40;;;;;;6220166;23;20459;-83
2022/07/09 10:23:55;;;;;;;3.33;1.00;;;26.00;91.50;;;;;;6220418;23;20065;-82
2022/07/09 10:26:21;;;;;;;1.88;0.75;;;25.30;94.00;;;;;;6247051;23;20400;-83
2022/07/09 10:28:46;;;;;;;1.52;0.63;;;25.00;98.20;;;;;;6220056;23;20016;-84
2022/07/09 10:31:20;;;;;;;2.85;0.82;;;25.50;92.70;;;;;;6219765;23;20100;-85
2022/07/09 10:34:00;;;;;;;2.08;0.70;;;25.60;84.20;;;;;;6220533;23;20051;-83
2022/07/09 10:36:27;;;;;;;3.35;0.70;;;24.90;94.60;;;;;;6246984;23;20013;-85
2022/07/09 10:38:56;;;;;;;1.95;0.90;;;24.50;98.50;;;;;;6194422;23;20051;-83
2022/07/09 10:41:23;;;;;;;3.13;0.80;;;24.50;99.60;;;;;;6220249;23;20020;-82
2022/07/09 10:43:52;;;;;;;2.70;0.88;;;25.40;94.90;;;;;;6220209;23;20008;-83
2022/07/09 10:46:19;;;;;;;4.03;0.80;;;26.40;90.10;;;;;;6220264;23;20114;-83
2022/07/09 10:48:45;;;;;;;4.47;1.00;;;26.90;80.00;;;;;;6193840;23;20440;-83
2022/07/09 10:51:19;;;;;;;3.00;0.80;;;26.80;76.60;;;;;;6246799;23;20095;-85
2022/07/09 10:53:45;;;;;;;3.88;0.75;;;26.20;72.90;;;;;;6246865;23;20018;-83
2022/07/09 10:56:11;;;;;;;2.60;0.77;;;25.60;81.10;;;;;;6220024;23;20016;-83
2022/07/09 10:58:37;;;;;;;2.58;0.75;;;25.70;80.00;;;;;;6220307;23;20020;-85
2022/07/09 11:01:04;;;;;;;3.75;0.70;;;25.90;84.10;;;;;;6246119;23;20016;-84
2022/07/09 11:03:31;;;;;;;3.05;0.80;;;26.10;85.50;;;;;;6219542;23;20055;-84
2022/07/09 11:05:58;;;;;;;3.67;0.80;;;25.70;88.80;;;;;;6194745;23;20066;-83
2022/07/09 11:08:24;;;;;;;5.88;1.10;;;25.10;92.70;;;;;;6219992;23;20013;-83
2022/07/09 11:10:50;;;;;;;2.67;1.00;;;24.50;95.50;;;;;;6219820;23;20017;-86
2022/07/09 11:13:15;;;;;;;4.55;1.42;;;24.50;95.10;;;;;;6246957;23;20335;-82
2022/07/09 11:15:41;;;;;;;3.15;1.02;;;24.90;91.00;;;;;;6246583;23;20070;-82
2022/07/09 11:18:07;;;;;;;3.60;0.90;;;25.60;84.50;;;;;;6247025;23;20054;-83
2022/07/09 11:20:45;;;;;;;4.90;1.13;;;26.10;75.00;;;;;;6246648;23;20024;-83
2022/07/09 11:23:15;;;;;;;2.08;0.70;;;26.10;74.50;;;;;;6219829;23;20016;-82
2022/07/09 11:25:42;;;;;;;2.83;0.80;;;26.60;71.20;;;;;;6219883;23;20016;-84
2022/07/09 11:28:08;;;;;;;5.53;0.93;;;27.30;65.70;;;;;;6219691;23;20336;-82
2022/07/09 11:30:36;;;;;;;5.13;1.52;;;27.20;65.50;;;;;;6246673;23;20022;-83
2022/07/09 11:33:02;;;;;;;3.53;0.88;;;26.60;68.50;;;;;;6246443;23;20016;-82
2022/07/09 11:35:33;;;;;;;2.92;0.77;;;26.40;71.30;;;;;;6246408;23;20023;-82
2022/07/09 11:38:02;;;;;;;3.35;1.10;;;26.00;74.40;;;;;;6219775;23;20024;-82
2022/07/09 11:40:28;;;;;;;5.50;1.10;;;25.90;72.80;;;;;;6246547;23;20027;-83
2022/07/09 11:42:54;;;;;;;5.03;1.10;;;26.10;74.30;;;;;;6246291;23;20016;-83
2022/07/09 11:45:22;;;;;;;2.47;0.93;;;27.00;70.70;;;;;;6247281;23;20405;-83
2022/07/09 11:47:48;;;;;;;4.82;1.08;;;28.00;66.50;;;;;;6219438;23;20023;-83
2022/07/09 11:50:18;;;;;;;6.22;1.13;;;28.50;62.90;;;;;;6246081;23;20020;-82
2022/07/09 11:52:49;;;;;;;5.78;1.30;;;28.00;65.00;;;;;;6246540;23;20332;-83
2022/07/09 11:55:20;;;;;;;7.70;1.48;;;27.30;71.10;;;;;;6246194;23;20020;-83
2022/07/09 11:58:04;;;;;;;8.68;1.23;;;27.20;74.20;;;;;;6194267;23;20020;-83
2022/07/09 12:00:33;;;;;;;8.30;1.65;;;27.40;72.60;;;;;;6219345;23;20024;-83
2022/07/09 12:03:00;;;;;;;6.35;1.42;;;27.50;74.40;;;;;;6247196;23;20070;-83
2022/07/09 12:05:35;;;;;;;4.20;1.40;;;27.60;69.80;;;;;;6220128;23;20402;-82
2022/07/09 12:08:05;;;;;;;7.30;1.58;;;27.40;70.00;;;;;;6247492;23;20332;-83
2022/07/09 12:10:33;;;;;;;7.10;1.35;;;27.70;72.10;;;;;;6222430;23;20026;-83
2022/07/09 12:13:00;;;;;;;6.50;1.42;;;28.20;66.00;;;;;;6221304;23;20023;-84
2022/07/09 12:15:28;;;;;;;3.38;1.20;;;28.50;64.70;;;;;;6195017;23;20027;-84
2022/07/09 12:17:58;;;;;;;4.75;1.33;;;28.90;63.50;;;;;;6226073;23;20020;-84
2022/07/09 12:20:27;;;;;;;6.70;1.48;;;29.20;61.80;;;;;;6222893;23;20026;-84
2022/07/09 12:22:53;;;;;;;3.80;1.10;;;29.30;62.30;;;;;;6248075;23;20055;-83
2022/07/09 12:25:19;;;;;;;5.43;1.20;;;29.50;61.10;;;;;;6195893;23;20035;-85
2022/07/09 12:27:46;;;;;;;10.35;1.20;;;29.70;57.70;;;;;;6219885;23;20012;-83
2022/07/09 12:30:12;;;;;;;10.30;1.75;;;29.50;56.40;;;;;;6246835;23;20019;-83
2022/07/09 12:32:41;;;;;;;5.38;1.27;;;28.90;60.00;;;;;;6219846;23;20023;-86
2022/07/09 12:35:09;;;;;;;8.35;1.45;;;28.80;60.20;;;;;;6245945;23;20016;-82
2022/07/09 12:37:35;;;;;;;3.30;1.25;;;28.70;60.20;;;;;;6246680;23;20054;-81